Time;durP1;ratioP1;P1;durP2;ratioP2;P2;SDS_P1;SDS_P2;PMS_P1;PMS_P2;Temp;Humidity;BMP_temperature;BMP_pressure;BME280_temperature;BME280_humidity;BME280_pressure;Samples;Min_cycle;Max_cycle;Signal;HPM_P1;HPM_P2
2023/08/22 00:01:32;;;;;;;17.1;12.7;;;;;;;21.03;87.35;;;;;
2023/08/22 00:11:33;;;;;;;21.8;13.8;;;;;;;20.91;87.36;;;;;
2023/08/22 00:22:32;;;;;;;21.8;13.8;;;;;;;20.77;87.36;;;;;
2023/08/22 00:33:32;;;;;;;18.2;13.7;;;;;;;20.69;87.4;;;;;
2023/08/22 00:44:32;;;;;;;18.2;13.7;;;;;;;20.51;88.13;;;;;
2023/08/22 00:54:33;;;;;;;18.2;13.7;;;;;;;20.5;89.35;;;;;
2023/08/22 01:05:32;;;;;;;17.1;15;;;;;;;20.48;89.05;;;;;
2023/08/22 01:16:33;;;;;;;17.1;15;;;;;;;20.42;88.4;;;;;
2023/08/22 01:27:32;;;;;;;17.1;15;;;;;;;20.34;88.85;;;;;
2023/08/22 01:37:33;;;;;;;17.8;15.1;;;;;;;20.27;88.56;;;;;
2023/08/22 01:48:32;;;;;;;17.8;15.1;;;;;;;20.18;88.75;;;;;
2023/08/22 01:58:32;;;;;;;17.8;15.1;;;;;;;20.1;88.83;;;;;
2023/08/22 02:08:33;;;;;;;18.5;15.3;;;;;;;19.99;88.55;;;;;
2023/08/22 02:19:32;;;;;;;18.5;15.3;;;;;;;19.85;88.2;;;;;
2023/08/22 02:30:33;;;;;;;18.5;15.3;;;;;;;19.75;88.66;;;;;
2023/08/22 02:40:33;;;;;;;14;12.4;;;;;;;19.69;89.17;;;;;
2023/08/22 02:51:33;;;;;;;14;12.4;;;;;;;19.81;90.6;;;;;
2023/08/22 03:02:33;;;;;;;14;12.4;;;;;;;20.09;90.55;;;;;
2023/08/22 03:13:33;;;;;;;21;17.3;;;;;;;20.26;90.37;;;;;
2023/08/22 03:24:32;;;;;;;21;17.3;;;;;;;20.2;90.4;;;;;
2023/08/22 03:34:33;;;;;;;20.1;17.1;;;;;;;20.28;89.74;;;;;
2023/08/22 03:45:33;;;;;;;20.1;17.1;;;;;;;20.16;90.16;;;;;
2023/08/22 03:55:33;;;;;;;20.1;17.1;;;;;;;20.11;89.66;;;;;
2023/08/22 04:05:33;;;;;;;18.1;14.8;;;;;;;20.06;89.81;;;;;
2023/08/22 04:16:33;;;;;;;18.1;14.8;;;;;;;20.15;90.02;;;;;
2023/08/22 04:27:33;;;;;;;18.1;14.8;;;;;;;20.32;90.34;;;;;
2023/08/22 04:38:33;;;;;;;23.8;18;;;;;;;20.61;90.52;;;;;
2023/08/22 04:49:33;;;;;;;23.8;18;;;;;;;20.77;90.4;;;;;
2023/08/22 04:59:33;;;;;;;23.8;18;;;;;;;21.03;90.21;;;;;
2023/08/22 05:10:33;;;;;;;24.7;22.1;;;;;;;21.56;89.65;;;;;
2023/08/22 05:20:33;;;;;;;24.7;22.1;;;;;;;21.84;88.97;;;;;
2023/08/22 05:31:33;;;;;;;24.7;22.1;;;;;;;22.21;88.62;;;;;
2023/08/22 05:41:33;;;;;;;29;23.2;;;;;;;22.51;87.68;;;;;
2023/08/22 05:51:33;;;;;;;29;23.2;;;;;;;22.82;86.51;;;;;
2023/08/22 06:02:33;;;;;;;29;23.2;;;;;;;23.07;84.97;;;;;
2023/08/22 06:12:33;;;;;;;24.6;21.7;;;;;;;23.23;84.17;;;;;
2023/08/22 06:23:33;;;;;;;24.6;21.7;;;;;;;23.56;82.93;;;;;
2023/08/22 06:34:33;;;;;;;21.1;17.7;;;;;;;23.91;82.5;;;;;
2023/08/22 06:45:33;;;;;;;21.1;17.7;;;;;;;24.07;82.06;;;;;
2023/08/22 06:55:33;;;;;;;21.1;17.7;;;;;;;24.36;81.67;;;;;
2023/08/22 07:06:33;;;;;;;17.1;14.9;;;;;;;25.02;80.06;;;;;
2023/08/22 07:17:33;;;;;;;17.1;14.9;;;;;;;25.22;79.87;;;;;
2023/08/22 07:27:33;;;;;;;17.1;14.9;;;;;;;25.52;77.58;;;;;
2023/08/22 07:38:33;;;;;;;14.8;12.6;;;;;;;25.95;75.11;;;;;
2023/08/22 07:48:33;;;;;;;14.8;12.6;;;;;;;26.13;73.53;;;;;
2023/08/22 07:58:33;;;;;;;14.8;12.6;;;;;;;26.16;72.67;;;;;
2023/08/22 08:09:33;;;;;;;12.1;9.8;;;;;;;27.07;68.67;;;;;
2023/08/22 08:20:33;;;;;;;12.1;9.8;;;;;;;27.03;69.12;;;;;
2023/08/22 08:31:33;;;;;;;12.1;9.8;;;;;;;27.08;66.65;;;;;
2023/08/22 08:41:33;;;;;;;10.9;8.8;;;;;;;26.99;66.21;;;;;
2023/08/22 08:52:33;;;;;;;10.9;8.8;;;;;;;27.17;66.24;;;;;
2023/08/22 09:02:33;;;;;;;10.9;8.8;;;;;;;27.41;65.94;;;;;
2023/08/22 09:12:33;;;;;;;13.3;9.4;;;;;;;27.58;64.47;;;;;
2023/08/22 09:22:33;;;;;;;13.3;9.4;;;;;;;27.9;64.36;;;;;
2023/08/22 09:54:25;;;;;;;12.5;8.8;;;;;;;28.17;61.48;;;;;
2023/08/22 10:04:25;;;;;;;12.5;9.1;;;;;;;28.2;58.5;;;;;
2023/08/22 10:14:25;;;;;;;12.5;9.1;;;;;;;28.34;57.08;;;;;
2023/08/22 10:25:25;;;;;;;12.5;9.1;;;;;;;28.92;58.06;;;;;
2023/08/22 10:35:25;;;;;;;12.1;7.6;;;;;;;28.64;55.89;;;;;
2023/08/22 10:45:25;;;;;;;12.1;7.6;;;;;;;28.98;55.59;;;;;
2023/08/22 10:56:25;;;;;;;12.1;7.6;;;;;;;29.19;56.27;;;;;
2023/08/22 11:06:25;;;;;;;11.3;7.7;;;;;;;29.33;57.2;;;;;
2023/08/22 11:16:25;;;;;;;11.3;7.7;;;;;;;29.36;53.2;;;;;
2023/08/22 11:26:25;;;;;;;11.3;7.7;;;;;;;29.43;52.82;;;;;
2023/08/22 11:37:25;;;;;;;8.7;6.7;;;;;;;29.89;52.29;;;;;
2023/08/22 11:48:25;;;;;;;8.7;6.7;;;;;;;29.67;54.74;;;;;
2023/08/22 11:58:25;;;;;;;8.7;6.7;;;;;;;30.14;52.73;;;;;
2023/08/22 12:08:25;;;;;;;8.4;6.5;;;;;;;29.97;52.27;;;;;
2023/08/22 12:18:25;;;;;;;8.4;6.5;;;;;;;29.93;52.96;;;;;
2023/08/22 12:28:25;;;;;;;8.4;6.5;;;;;;;30.07;54.57;;;;;
2023/08/22 12:38:25;;;;;;;9.1;6.1;;;;;;;30.63;54.14;;;;;
2023/08/22 12:49:25;;;;;;;9.1;6.1;;;;;;;31.01;52.61;;;;;
2023/08/22 13:00:25;;;;;;;9.1;6.1;;;;;;;31.12;49.48;;;;;
2023/08/22 13:11:25;;;;;;;9.5;5.7;;;;;;;30.81;50.11;;;;;
2023/08/22 13:22:25;;;;;;;9.5;5.7;;;;;;;31.81;50.88;;;;;
2023/08/22 13:32:25;;;;;;;9.5;5.7;;;;;;;32.11;45.19;;;;;
2023/08/22 13:42:25;;;;;;;7;5;;;;;;;32.53;43.82;;;;;
2023/08/22 13:53:25;;;;;;;7;5;;;;;;;32.86;42.59;;;;;
2023/08/22 14:04:25;;;;;;;7;5;;;;;;;33.28;45.27;;;;;
2023/08/22 14:15:25;;;;;;;8.9;4.8;;;;;;;33.38;43.62;;;;;
2023/08/22 14:26:25;;;;;;;8.9;4.8;;;;;;;33.42;44.05;;;;;
2023/08/22 14:36:25;;;;;;;10.6;5.7;;;;;;;33.23;43.1;;;;;
2023/08/22 14:47:25;;;;;;;10.6;5.7;;;;;;;32.74;45.27;;;;;
2023/08/22 14:57:25;;;;;;;10.6;5.7;;;;;;;32.24;48.33;;;;;
2023/08/22 15:07:27;;;;;;;7.6;5.5;;;;;;;32.21;49.07;;;;;
2023/08/22 15:18:25;;;;;;;7.6;5.5;;;;;;;33.33;47.75;;;;;
2023/08/22 15:28:26;;;;;;;7.6;5.5;;;;;;;34.3;42.57;;;;;
2023/08/22 15:38:25;;;;;;;8.8;5.6;;;;;;;33.69;45.96;;;;;
2023/08/22 15:49:25;;;;;;;8.8;5.6;;;;;;;35.52;41.87;;;;;
2023/08/22 16:00:25;;;;;;;8.8;5.6;;;;;;;34.72;43.1;;;;;
2023/08/22 16:11:25;;;;;;;9.2;4.6;;;;;;;35.65;41.14;;;;;
2023/08/22 16:21:25;;;;;;;9.2;4.6;;;;;;;33.83;44.14;;;;;
2023/08/22 16:32:25;;;;;;;9.2;4.6;;;;;;;32.39;46.56;;;;;
2023/08/22 16:42:25;;;;;;;7.9;4.3;;;;;;;30.62;50.87;;;;;
2023/08/22 16:53:25;;;;;;;7.9;4.3;;;;;;;29.26;53.48;;;;;
2023/08/22 17:03:25;;;;;;;7.9;4.3;;;;;;;28.56;55.89;;;;;
2023/08/22 17:14:25;;;;;;;9.5;5.4;;;;;;;27.88;58.49;;;;;
2023/08/22 17:24:25;;;;;;;9.5;5.4;;;;;;;27.25;61.08;;;;;
2023/08/22 17:34:25;;;;;;;9.5;5.4;;;;;;;26.64;63.67;;;;;
2023/08/22 17:47:09;;;;;;;8.7;6.3;;;;;;;26.23;65.43;;;;;
2023/08/22 17:57:09;;;;;;;8.7;6.3;;;;;;;26.03;65.96;;;;;
2023/08/22 18:07:09;;;;;;;9.7;5.9;;;;;;;25.84;66.4;;;;;
2023/08/22 18:17:09;;;;;;;9.7;5.9;;;;;;;25.63;67.31;;;;;
2023/08/22 18:27:09;;;;;;;9.7;5.9;;;;;;;25.72;66.38;;;;;
2023/08/22 18:38:10;;;;;;;10.4;7.4;;;;;;;25.09;71.78;;;;;
2023/08/22 18:49:09;;;;;;;10.4;7.4;;;;;;;24.69;73.8;;;;;
2023/08/22 19:00:09;;;;;;;10.4;7.4;;;;;;;24.39;73.96;;;;;
2023/08/22 19:11:10;;;;;;;13;7.6;;;;;;;24.29;74.35;;;;;
2023/08/22 19:21:09;;;;;;;13;7.6;;;;;;;24.23;73.83;;;;;
2023/08/22 19:31:09;;;;;;;13;7.6;;;;;;;24.16;74.06;;;;;
2023/08/22 19:41:09;;;;;;;10.6;7.5;;;;;;;24.32;72.87;;;;;
2023/08/22 19:52:09;;;;;;;10.6;7.5;;;;;;;24.17;76.73;;;;;
2023/08/22 20:02:09;;;;;;;10.6;7.5;;;;;;;23.74;78.47;;;;;
2023/08/22 20:13:10;;;;;;;10.9;7.5;;;;;;;23.5;79.6;;;;;
2023/08/22 20:23:09;;;;;;;10.9;7.5;;;;;;;23.17;82.21;;;;;
2023/08/22 20:34:09;;;;;;;10.9;7.5;;;;;;;22.92;82.95;;;;;
2023/08/22 20:45:10;;;;;;;13.5;7.9;;;;;;;22.76;81.91;;;;;
2023/08/22 20:56:09;;;;;;;13.5;7.9;;;;;;;22.28;84.14;;;;;
2023/08/22 21:06:09;;;;;;;14.4;8.1;;;;;;;22.27;82.44;;;;;
2023/08/22 21:16:09;;;;;;;14.4;8.1;;;;;;;21.99;83.72;;;;;
2023/08/22 21:26:09;;;;;;;14.4;8.1;;;;;;;21.61;86;;;;;
2023/08/22 21:36:09;;;;;;;9.3;6.5;;;;;;;21.65;84.59;;;;;
2023/08/22 21:47:09;;;;;;;9.3;6.5;;;;;;;21.56;84.08;;;;;
2023/08/22 21:58:09;;;;;;;9.3;6.5;;;;;;;21.42;84.22;;;;;
2023/08/22 22:08:09;;;;;;;12.4;7;;;;;;;21.28;84.07;;;;;
2023/08/22 22:19:09;;;;;;;12.4;7;;;;;;;21.14;85.16;;;;;
2023/08/22 22:29:09;;;;;;;12.4;7;;;;;;;21.28;84.35;;;;;
2023/08/22 22:39:09;;;;;;;8.5;5.6;;;;;;;21.26;84.42;;;;;
2023/08/22 22:49:09;;;;;;;8.5;5.6;;;;;;;21.16;85.53;;;;;
2023/08/22 23:00:09;;;;;;;8.5;5.6;;;;;;;21.18;85.07;;;;;
2023/08/22 23:11:09;;;;;;;8.5;5.3;;;;;;;21.05;86.79;;;;;
2023/08/22 23:22:09;;;;;;;8.5;5.3;;;;;;;21.17;86.93;;;;;
2023/08/22 23:33:09;;;;;;;8.5;5.3;;;;;;;21.14;86.99;;;;;
2023/08/22 23:44:09;;;;;;;11.2;7.1;;;;;;;21.29;86.29;;;;;
2023/08/22 23:55:09;;;;;;;11.2;7.1;;;;;;;21.34;86.44;;;;;
